Berlin — 9HA2295 — position and weather

sailwx.info

Track history (hours):
 
Tides and Currents Weather Stations Pressure Air Temp Water Temp Dewpoint Dewpoint Depression Visibility Wind Speed Wind Dir Waves Ship Positions

Berlin

Last reported at 2015-Mar-31 19:28 UTC. Time now 2015-Apr-01 16:39 UTC.
Position N 38°09' E 022°36'.

Length 140 m; draft 5 m.

Type: Ship. MMSI: 248277000.

Date/timePositionNaut miles runAvg speedWind from/ knotsBaromVisibWave heightAir tempDewpointWater temp
2015-Mar-31 19:28N 38°09' E 022°36'24 7.1
2015-Mar-31 16:04N 37°55' E 023°01'3 6.2
2015-Mar-31 15:33N 37°53' E 023°04'1212.0
2015-Mar-31 14:33N 37°52' E 023°20'1111.3
2015-Mar-31 13:33N 37°52' E 023°34'5 5.1
2015-Mar-31 12:33N 37°56' E 023°38'0 0.0
2015-Mar-31 11:33N 37°56' E 023°38'0 0.0
2015-Mar-31 10:33N 37°56' E 023°38'0 0.0
2015-Mar-31 09:33N 37°56' E 023°38'0 0.0
2015-Mar-31 08:32N 37°56' E 023°38'0 0.0
2015-Mar-31 07:29N 37°56' E 023°38'0 0.0
2015-Mar-31 06:29N 37°56' E 023°38'0 0.0
2015-Mar-31 05:29N 37°56' E 023°38'0 0.0
2015-Mar-31 04:32N 37°56' E 023°38'0 0.2
2015-Mar-31 03:33N 37°56' E 023°38'7 6.6
2015-Mar-31 02:33N 37°50' E 023°40'1110.7
2015-Mar-31 01:33N 37°40' E 023°46'9310.3
2015-Mar-30 16:32N 36°32' E 025°04'1010.8
2015-Mar-30 15:33N 36°29' E 025°17'7 7.3
2015-Mar-30 14:32N 36°25' E 025°25'0 0.3
2015-Mar-30 13:32N 36°25' E 025°25'0 0.4
2015-Mar-30 12:32N 36°25' E 025°25'0 0.2
2015-Mar-30 11:33N 36°25' E 025°25'0 0.2
2015-Mar-30 10:32N 36°25' E 025°25'0 0.1
2015-Mar-30 09:32N 36°25' E 025°25'0 0.3
2015-Mar-30 08:33N 36°25' E 025°25'1 0.6
2015-Mar-30 07:31N 36°25' E 025°24'1 0.7
2015-Mar-30 06:33N 36°25' E 025°25'0 0.2
2015-Mar-30 05:32N 36°25' E 025°25'1 1.4
2015-Mar-30 04:33N 36°26' E 025°23'1111.0
2015-Mar-30 03:31N 36°28' E 025°09'1712.5
2015-Mar-30 02:12N 36°27' E 024°49'  
Track history (hours):
 
Tides and Currents Weather Stations Pressure Air Temp Water Temp Dewpoint Dewpoint Depression Visibility Wind Speed Wind Dir Waves Ship Positions

Berlin

Last reported at 2015-Mar-31 19:28 UTC. Time now 2015-Apr-01 16:39 UTC.
Position N 38°09' E 022°36'.

Length 140 m; draft 5 m.

Type: Ship. MMSI: 248277000.

Date/timePositionNaut miles runAvg speedWind from/ knotsBaromVisibWave heightAir tempDewpointWater temp
2015-Mar-31 19:28N 38°09' E 022°36'24 7.1
2015-Mar-31 16:04N 37°55' E 023°01'3 6.2
2015-Mar-31 15:33N 37°53' E 023°04'1212.0
2015-Mar-31 14:33N 37°52' E 023°20'1111.3
2015-Mar-31 13:33N 37°52' E 023°34'5 5.1
2015-Mar-31 12:33N 37°56' E 023°38'0 0.0
2015-Mar-31 11:33N 37°56' E 023°38'0 0.0
2015-Mar-31 10:33N 37°56' E 023°38'0 0.0
2015-Mar-31 09:33N 37°56' E 023°38'0 0.0
2015-Mar-31 08:32N 37°56' E 023°38'0 0.0
2015-Mar-31 07:29N 37°56' E 023°38'0 0.0
2015-Mar-31 06:29N 37°56' E 023°38'0 0.0
2015-Mar-31 05:29N 37°56' E 023°38'0 0.0
2015-Mar-31 04:32N 37°56' E 023°38'0 0.2
2015-Mar-31 03:33N 37°56' E 023°38'7 6.6
2015-Mar-31 02:33N 37°50' E 023°40'1110.7
2015-Mar-31 01:33N 37°40' E 023°46'9310.3
2015-Mar-30 16:32N 36°32' E 025°04'1010.8
2015-Mar-30 15:33N 36°29' E 025°17'7 7.3
2015-Mar-30 14:32N 36°25' E 025°25'0 0.3
2015-Mar-30 13:32N 36°25' E 025°25'0 0.4
2015-Mar-30 12:32N 36°25' E 025°25'0 0.2
2015-Mar-30 11:33N 36°25' E 025°25'0 0.2
2015-Mar-30 10:32N 36°25' E 025°25'0 0.1
2015-Mar-30 09:32N 36°25' E 025°25'0 0.3
2015-Mar-30 08:33N 36°25' E 025°25'1 0.6
2015-Mar-30 07:31N 36°25' E 025°24'1 0.7
2015-Mar-30 06:33N 36°25' E 025°25'0 0.2
2015-Mar-30 05:32N 36°25' E 025°25'1 1.4
2015-Mar-30 04:33N 36°26' E 025°23'1111.0
2015-Mar-30 03:31N 36°28' E 025°09'1712.5
2015-Mar-30 02:12N 36°27' E 024°49'  

Dump ship's entire track history